Time;durP1;ratioP1;P1;durP2;ratioP2;P2;SDS_P1;SDS_P2;PMS_P1;PMS_P2;Temp;Humidity;BMP_temperature;BMP_pressure;BME280_temperature;BME280_humidity;BME280_pressure;Samples;Min_cycle;Max_cycle;Signal;HPM_P1;HPM_P2
2022/05/21 00:00:34;;;;;;;6.78;3.65;;;;;;;17.01;100.00;100367.03;5113591;28;20221;-74
2022/05/21 00:03:01;;;;;;;3.20;2.90;;;;;;;17.16;100.00;100393.09;5113017;28;20204;-74
2022/05/21 00:05:30;;;;;;;4.57;3.70;;;;;;;17.07;100.00;100355.63;5113472;28;20692;-77
2022/05/21 00:07:57;;;;;;;3.05;2.85;;;;;;;17.13;100.00;100387.88;5113481;28;20255;-74
2022/05/21 00:10:26;;;;;;;7.97;3.08;;;;;;;17.07;100.00;100372.22;5113207;28;20205;-74
2022/05/21 00:12:53;;;;;;;6.80;3.30;;;;;;;16.75;100.00;100332.25;5113201;28;20197;-74
2022/05/21 00:15:24;;;;;;;6.95;3.03;;;;;;;17.04;100.00;100367.00;5113156;28;20653;-74
2022/05/21 00:17:51;;;;;;;7.05;3.70;;;;;;;17.00;100.00;100373.16;5112756;28;20567;-74
2022/05/21 00:23:10;;;;;;;3.30;3.00;;;;;;;17.07;100.00;100385.31;5049762;28;20198;-74
2022/05/21 00:25:37;;;;;;;7.43;3.65;;;;;;;17.08;100.00;100384.44;5018172;28;20298;-74
2022/05/21 00:28:04;;;;;;;3.50;3.17;;;;;;;16.82;100.00;100366.28;5045955;28;20214;-74
2022/05/21 00:30:33;;;;;;;3.03;2.75;;;;;;;16.99;100.00;100387.13;5049955;28;20218;-78
2022/05/21 00:33:00;;;;;;;4.68;4.20;;;;;;;16.75;100.00;100343.63;5050134;28;20361;-74
2022/05/21 00:35:27;;;;;;;4.05;3.40;;;;;;;16.76;100.00;100360.19;5049935;28;20196;-74
2022/05/21 00:37:54;;;;;;;9.68;2.90;;;;;;;16.78;100.00;100361.06;5049985;28;20231;-74
2022/05/21 00:40:21;;;;;;;7.85;3.20;;;;;;;16.69;100.00;100345.41;5049609;28;20231;-74
2022/05/21 00:42:49;;;;;;;4.82;3.67;;;;;;;16.37;100.00;100298.44;5049888;28;20225;-74
2022/05/21 00:45:17;;;;;;;4.03;3.53;;;;;;;16.70;100.00;100366.31;5049783;28;20199;-74
2022/05/21 00:47:45;;;;;;;3.83;3.45;;;;;;;16.61;100.00;100334.09;5049759;28;20203;-74
2022/05/21 00:50:15;;;;;;;4.03;2.72;;;;;;;16.78;100.00;100348.84;5049334;28;20680;-74
2022/05/21 00:52:42;;;;;;;3.00;2.70;;;;;;;16.80;100.00;100341.81;5049564;28;20199;-74
2022/05/21 00:55:13;;;;;;;3.35;2.75;;;;;;;16.87;100.00;100331.31;4999899;28;20199;-74
2022/05/21 00:57:43;;;;;;;5.90;3.15;;;;;;;16.79;100.00;100334.00;5049738;28;20247;-74
2022/05/21 01:00:12;;;;;;;2.95;2.65;;;;;;;16.75;100.00;100341.00;5078446;28;20225;-74
2022/05/21 01:02:42;;;;;;;4.53;2.08;;;;;;;16.83;100.00;100341.81;5112548;28;20197;-74
2022/05/21 01:05:14;;;;;;;4.35;3.47;;;;;;;16.67;100.00;100329.69;5112222;28;20193;-74
2022/05/21 01:07:44;;;;;;;4.28;2.97;;;;;;;16.67;100.00;100341.91;5112332;28;20653;-74
2022/05/21 01:10:14;;;;;;;4.85;2.45;;;;;;;16.68;100.00;100341.03;5112309;28;20287;-74
2022/05/21 01:12:45;;;;;;;3.40;2.42;;;;;;;16.62;100.00;100304.44;5076938;28;20205;-76
2022/05/21 01:15:15;;;;;;;3.05;2.55;;;;;;;16.71;100.00;100330.53;5112129;28;20221;-74
2022/05/21 01:17:42;;;;;;;11.02;7.30;;;;;;;16.54;100.00;100312.28;5112011;28;20190;-75
2022/05/21 01:20:15;;;;;;;4.57;2.42;;;;;;;16.64;100.00;100319.22;5111784;28;20224;-75
2022/05/21 01:22:46;;;;;;;2.53;2.33;;;;;;;16.68;100.00;100320.97;5112046;28;20208;-74
2022/05/21 01:25:15;;;;;;;4.38;2.50;;;;;;;16.70;100.00;100334.91;5112032;28;20225;-74
2022/05/21 01:27:44;;;;;;;2.40;2.20;;;;;;;16.59;100.00;100330.59;5111939;28;20201;-74
2022/05/21 01:30:13;;;;;;;8.80;2.40;;;;;;;16.48;100.00;100309.69;5110825;28;20665;-74
2022/05/21 01:32:40;;;;;;;2.97;2.63;;;;;;;16.47;100.00;100320.19;5111418;28;20205;-75
2022/05/21 01:35:07;;;;;;;2.25;2.13;;;;;;;16.44;100.00;100317.56;5111458;28;20208;-74
2022/05/21 01:37:34;;;;;;;2.10;2.00;;;;;;;16.45;100.00;100319.28;5111508;28;20233;-74
2022/05/21 01:40:03;;;;;;;2.65;2.45;;;;;;;16.53;100.00;100314.91;5111093;28;20243;-74
2022/05/21 01:42:30;;;;;;;3.53;2.42;;;;;;;16.26;100.00;100282.78;5111327;28;20193;-74
2022/05/21 01:44:56;;;;;;;2.50;2.30;;;;;;;16.41;100.00;100315.81;5111259;28;20224;-74
2022/05/21 01:47:22;;;;;;;8.25;5.50;;;;;;;16.15;100.00;100287.19;5111585;28;20583;-74
2022/05/21 01:49:51;;;;;;;3.20;2.50;;;;;;;15.99;100.00;100264.56;5111579;28;20562;-74
2022/05/21 01:52:19;;;;;;;7.85;3.80;;;;;;;16.22;100.00;100315.06;5111626;28;20209;-75
2022/05/21 01:54:46;;;;;;;2.22;2.10;;;;;;;16.21;100.00;100307.22;5111671;28;20674;-74
2022/05/21 01:57:14;;;;;;;4.45;2.97;;;;;;;16.18;100.00;100308.09;5075624;28;20668;-74
2022/05/21 01:59:41;;;;;;;2.60;2.40;;;;;;;16.16;100.00;100299.38;5111491;28;20232;-74
2022/05/21 02:02:08;;;;;;;5.97;3.38;;;;;;;16.00;100.00;100273.28;5110619;28;20209;-74
2022/05/21 02:04:35;;;;;;;11.15;4.88;;;;;;;16.13;100.00;100298.50;5111357;28;20769;-74
2022/05/21 02:07:02;;;;;;;7.68;2.28;;;;;;;16.07;100.00;100296.81;5092391;28;20197;-74
2022/05/21 02:09:29;;;;;;;2.22;2.05;;;;;;;16.01;100.00;100289.00;5111167;28;20220;-74
2022/05/21 02:11:56;;;;;;;3.08;2.13;;;;;;;16.06;100.00;100281.97;5111377;28;20206;-74
2022/05/21 02:14:24;;;;;;;7.40;4.13;;;;;;;16.06;100.00;100281.97;5111130;28;20205;-74
2022/05/21 02:16:51;;;;;;;5.40;3.65;;;;;;;15.94;100.00;100255.88;5111303;28;20193;-74
2022/05/21 02:19:18;;;;;;;2.95;2.65;;;;;;;16.16;100.00;100283.66;5111214;28;20229;-74
2022/05/21 02:21:44;;;;;;;3.78;2.60;;;;;;;16.21;100.00;100287.16;5075530;28;20201;-74
2022/05/21 02:24:13;;;;;;;13.95;7.72;;;;;;;16.14;100.00;100295.91;5111114;28;20198;-74
2022/05/21 02:26:40;;;;;;;2.92;2.42;;;;;;;15.75;100.00;100209.75;5110764;28;20649;-76
2022/05/21 02:29:08;;;;;;;17.42;8.27;;;;;;;16.03;100.00;100260.19;5111081;28;20197;-75
2022/05/21 02:31:36;;;;;;;6.80;2.80;;;;;;;16.27;100.00;100292.34;5074556;28;20208;-76
2022/05/21 02:34:03;;;;;;;4.70;3.45;;;;;;;16.10;99.61;100251.44;5110541;28;20201;-75
2022/05/21 02:39:29;;;;;;;2.03;1.70;;;;;;;16.34;99.13;100298.41;5094737;28;20204;-74
2022/05/21 02:41:57;;;;;;;7.38;2.58;;;;;;;16.34;99.02;100294.06;5110915;28;20278;-74
2022/05/21 02:44:24;;;;;;;3.53;1.92;;;;;;;16.42;94.63;100296.63;5110710;28;20198;-74
2022/05/21 02:46:53;;;;;;;4.13;2.20;;;;;;;16.34;95.75;100252.19;5111016;28;20856;-74
2022/05/21 02:49:20;;;;;;;4.03;2.72;;;;;;;16.48;95.19;100300.97;5110683;28;20202;-74
2022/05/21 02:51:47;;;;;;;3.45;2.25;;;;;;;16.56;97.14;100293.97;5110530;28;20201;-74
2022/05/21 02:54:15;;;;;;;2.40;2.20;;;;;;;16.62;98.34;100288.72;5110390;28;20194;-74
2022/05/21 02:56:46;;;;;;;10.13;4.95;;;;;;;16.63;98.67;100295.66;5110299;28;20227;-74
2022/05/21 02:59:12;;;;;;;4.65;3.00;;;;;;;16.53;96.84;100283.47;5110353;28;22030;-74
2022/05/21 03:01:39;;;;;;;6.43;2.20;;;;;;;16.59;96.69;100293.94;5110523;28;20196;-74
2022/05/21 03:04:08;;;;;;;2.35;2.25;;;;;;;16.39;95.01;100252.16;5110452;28;20217;-74
2022/05/21 03:06:35;;;;;;;6.47;2.47;;;;;;;16.59;96.75;100293.94;5110361;28;20232;-75
2022/05/21 03:11:47;;;;;;;9.90;3.05;;;;;;;16.69;100.00;100285.19;5110999;28;20259;-77
2022/05/21 03:14:13;;;;;;;5.10;2.97;;;;;;;16.65;100.00;100296.53;5114261;28;20197;-76
2022/05/21 03:16:40;;;;;;;7.90;4.25;;;;;;;16.59;100.00;100296.56;5113903;28;20250;-75
2022/05/21 03:19:08;;;;;;;18.10;9.57;;;;;;;16.54;100.00;100282.63;5114265;28;20204;-75
2022/05/21 03:21:35;;;;;;;8.48;4.63;;;;;;;16.40;100.00;100293.16;5078365;28;20236;-75
2022/05/21 03:24:02;;;;;;;7.53;4.85;;;;;;;16.80;100.00;100285.97;5094801;28;20201;-73
2022/05/21 03:26:29;;;;;;;41.65;21.65;;;;;;;17.13;100.00;100269.97;5113885;28;20598;-73
2022/05/21 03:28:56;;;;;;;9.02;5.15;;;;;;;17.60;100.00;100294.91;5113847;28;20229;-73
2022/05/21 03:31:23;;;;;;;5.68;4.57;;;;;;;18.16;100.00;100292.50;5114146;28;20208;-73
2022/05/21 03:33:50;;;;;;;8.05;4.15;;;;;;;18.62;100.00;100282.28;5113407;28;20286;-73
2022/05/21 03:36:18;;;;;;;11.00;5.93;;;;;;;19.29;100.00;100287.38;5113867;28;20197;-73
2022/05/21 03:38:45;;;;;;;7.47;4.60;;;;;;;19.57;100.00;100260.59;5113772;28;20197;-73
2022/05/21 03:41:12;;;;;;;5.57;4.28;;;;;;;20.22;100.00;100299.66;5113461;28;20218;-73
2022/05/21 03:43:38;;;;;;;4.43;3.50;;;;;;;20.44;100.00;100297.44;5077601;28;20189;-73
2022/05/21 03:46:05;;;;;;;9.30;3.90;;;;;;;21.01;96.62;100300.53;5113827;28;20204;-73
2022/05/21 03:48:32;;;;;;;11.27;4.28;;;;;;;21.51;92.41;100277.34;5113238;28;20193;-74
2022/05/21 03:50:59;;;;;;;9.75;5.00;;;;;;;22.56;78.79;100304.25;5114102;28;20233;-74
2022/05/21 03:53:28;;;;;;;9.50;5.03;;;;;;;22.83;76.03;100298.16;5111419;28;20198;-75
2022/05/21 03:55:55;;;;;;;6.70;4.18;;;;;;;23.43;74.27;100307.69;5113727;28;20688;-74
2022/05/21 03:58:22;;;;;;;16.75;4.35;;;;;;;23.85;71.12;100308.84;5113651;28;20202;-74
2022/05/21 04:00:50;;;;;;;10.35;4.35;;;;;;;24.54;66.74;100304.53;5113376;28;20237;-74
2022/05/21 04:03:17;;;;;;;7.40;4.45;;;;;;;24.93;63.10;100312.75;5113093;28;20194;-74
2022/05/21 04:05:44;;;;;;;12.32;5.07;;;;;;;25.49;60.87;100319.22;5057047;28;20194;-74
2022/05/21 04:08:11;;;;;;;14.80;4.60;;;;;;;25.47;59.28;100297.19;5092358;28;20678;-74
2022/05/21 04:10:40;;;;;;;10.73;4.80;;;;;;;25.29;58.75;100300.63;5092903;28;20201;-74
2022/05/21 04:13:06;;;;;;;12.75;4.85;;;;;;;25.50;59.05;100328.06;5092215;28;20198;-74
2022/05/21 04:15:33;;;;;;;8.88;4.55;;;;;;;25.58;58.71;100329.50;5092225;28;20202;-74
2022/05/21 04:18:00;;;;;;;9.07;4.57;;;;;;;25.70;58.03;100341.38;5092670;28;20202;-74
2022/05/21 04:20:28;;;;;;;8.52;4.53;;;;;;;25.62;57.84;100330.22;5092112;28;20252;-74
2022/05/21 04:22:55;;;;;;;6.22;4.75;;;;;;;26.09;57.52;100337.00;5092504;28;20198;-74
2022/05/21 04:25:22;;;;;;;14.80;4.70;;;;;;;26.14;58.11;100328.81;5091058;28;20579;-75
2022/05/21 04:27:50;;;;;;;7.43;4.28;;;;;;;26.39;57.69;100339.25;5066064;28;20212;-73
2022/05/21 04:30:19;;;;;;;5.57;3.72;;;;;;;26.61;57.02;100338.16;5112770;28;20220;-74
2022/05/21 04:32:47;;;;;;;5.07;3.78;;;;;;;26.59;56.78;100316.09;5112979;28;20197;-74
2022/05/21 04:35:14;;;;;;;6.97;4.53;;;;;;;27.49;55.49;100341.03;5112934;28;20257;-74
2022/05/21 04:37:41;;;;;;;4.60;3.38;;;;;;;27.61;54.43;100348.44;5112870;28;20244;-74
2022/05/21 04:40:11;;;;;;;4.15;3.63;;;;;;;27.77;53.51;100340.50;5103265;28;20750;-74
2022/05/21 04:42:38;;;;;;;9.13;4.40;;;;;;;28.35;52.20;100349.88;5108128;28;20657;-72
2022/05/21 04:45:09;;;;;;;7.05;3.50;;;;;;;28.74;50.67;100344.19;5076861;28;20220;-74
2022/05/21 04:47:36;;;;;;;9.73;3.97;;;;;;;29.17;49.75;100347.97;5093010;28;20288;-74
2022/05/21 04:50:04;;;;;;;4.82;3.15;;;;;;;29.05;49.58;100341.50;5111767;28;20201;-73
2022/05/21 04:52:31;;;;;;;3.22;3.03;;;;;;;28.55;50.09;100343.44;5112288;28;20201;-73
2022/05/21 04:54:58;;;;;;;3.83;3.20;;;;;;;28.13;50.28;100346.59;5112270;28;20216;-73
2022/05/21 04:57:24;;;;;;;3.47;2.90;;;;;;;28.21;50.00;100352.41;5111783;28;20189;-74
2022/05/21 04:59:51;;;;;;;3.63;2.92;;;;;;;28.30;50.03;100351.91;5074236;28;20209;-74
2022/05/21 05:02:20;;;;;;;4.10;3.38;;;;;;;28.67;49.05;100341.91;5112001;28;20193;-74
2022/05/21 05:04:46;;;;;;;3.33;2.88;;;;;;;28.98;48.43;100361.50;5112057;28;20681;-75
2022/05/21 05:07:13;;;;;;;4.30;2.97;;;;;;;28.98;47.98;100345.47;5112171;28;20201;-74
2022/05/21 05:09:41;;;;;;;4.10;2.78;;;;;;;29.36;47.52;100358.47;5112148;28;20644;-74
2022/05/21 05:12:08;;;;;;;5.20;3.95;;;;;;;29.64;47.18;100360.41;5092290;28;20217;-75
2022/05/21 05:14:36;;;;;;;3.95;2.92;;;;;;;29.36;46.82;100350.47;5009684;28;20685;-75
2022/05/21 05:17:04;;;;;;;7.63;3.92;;;;;;;29.22;47.60;100353.00;5110636;28;20594;-74
2022/05/21 05:19:33;;;;;;;5.75;3.35;;;;;;;28.97;46.95;100356.22;5110106;28;20193;-74
2022/05/21 05:22:00;;;;;;;7.18;3.17;;;;;;;29.02;46.31;100363.03;5074739;28;20333;-73
2022/05/21 05:24:27;;;;;;;3.03;2.78;;;;;;;28.91;45.98;100341.41;5109893;28;20201;-73
2022/05/21 05:26:53;;;;;;;4.10;3.15;;;;;;;28.78;46.15;100321.72;5110047;28;20207;-73
2022/05/21 05:29:20;;;;;;;6.10;3.45;;;;;;;28.76;45.84;100355.63;5109567;28;20246;-73
2022/05/21 05:31:47;;;;;;;7.63;3.10;;;;;;;28.55;46.12;100338.09;5111487;28;20197;-74
2022/05/21 05:34:14;;;;;;;3.13;2.75;;;;;;;28.52;46.08;100357.81;5111652;28;20580;-73
2022/05/21 05:36:42;;;;;;;3.25;2.85;;;;;;;28.66;44.81;100349.03;5111214;28;20224;-75
2022/05/21 05:39:08;;;;;;;3.65;2.83;;;;;;;28.85;44.99;100347.13;5111510;28;20193;-72
2022/05/21 05:41:38;;;;;;;4.57;2.88;;;;;;;28.39;44.86;100308.75;5111410;28;20235;-73
2022/05/21 05:44:05;;;;;;;4.22;2.45;;;;;;;28.34;43.83;100341.94;5111626;28;20240;-73
2022/05/21 05:46:32;;;;;;;9.13;2.88;;;;;;;27.37;45.41;100341.63;5111368;28;20295;-74
2022/05/21 05:48:59;;;;;;;6.53;2.90;;;;;;;27.00;47.56;100334.59;5111134;28;20216;-75
2022/05/21 05:51:26;;;;;;;6.25;2.75;;;;;;;26.74;48.39;100314.50;5111455;28;20193;-73
2022/05/21 05:53:55;;;;;;;5.97;2.80;;;;;;;26.70;47.75;100323.56;5111277;28;20208;-74
2022/05/21 05:56:22;;;;;;;12.68;3.05;;;;;;;26.98;47.41;100323.13;5110873;28;20197;-70
2022/05/21 06:01:43;;;;;;;7.90;3.40;;;;;;;27.13;46.82;100332.19;5027952;28;20242;-71
2022/05/21 06:04:10;;;;;;;10.00;3.75;;;;;;;26.93;46.72;100322.50;5027972;28;20224;-71
2022/05/21 06:06:36;;;;;;;7.00;3.78;;;;;;;27.02;47.62;100303.41;4995485;28;20199;-71
2022/05/21 06:09:05;;;;;;;22.35;4.15;;;;;;;26.27;50.00;100323.84;5026631;28;20208;-71
2022/05/21 06:11:37;;;;;;;10.48;3.80;;;;;;;26.20;50.27;100296.66;4994355;28;20204;-73
2022/05/21 06:14:04;;;;;;;9.77;5.32;;;;;;;25.75;50.67;100310.19;5028249;28;20200;-75
2022/05/21 06:16:31;;;;;;;12.50;5.38;;;;;;;25.70;50.72;100306.84;5030233;28;20206;-74
2022/05/21 06:18:58;;;;;;;7.00;3.80;;;;;;;25.80;50.19;100302.00;5030926;28;20254;-73
2022/05/21 06:21:25;;;;;;;14.95;4.30;;;;;;;25.43;51.88;100305.34;5025742;28;20220;-72
2022/05/21 06:23:53;;;;;;;9.80;3.00;;;;;;;24.86;52.96;100285.59;5026470;28;21041;-74
2022/05/21 06:26:21;;;;;;;9.43;3.08;;;;;;;24.90;53.12;100308.41;5026780;28;20196;-73
2022/05/21 06:28:48;;;;;;;9.77;3.17;;;;;;;24.43;55.45;100318.22;5015473;28;20247;-73
2022/05/21 06:31:16;;;;;;;5.55;3.33;;;;;;;24.28;54.41;100317.91;5013322;28;20195;-73
2022/05/21 06:33:42;;;;;;;9.10;3.03;;;;;;;24.23;55.62;100315.41;5025754;28;20211;-75
2022/05/21 06:36:11;;;;;;;6.18;2.55;;;;;;;23.88;57.91;100302.56;5027600;28;20208;-77
2022/05/21 06:38:39;;;;;;;5.35;2.90;;;;;;;23.40;58.44;100315.72;5106165;28;20197;-75
2022/05/21 06:41:06;;;;;;;9.48;2.90;;;;;;;22.93;59.45;100283.75;5091665;28;20235;-73
2022/05/21 06:43:35;;;;;;;7.40;2.90;;;;;;;23.03;61.38;100314.28;5110305;28;20205;-73
2022/05/21 06:46:02;;;;;;;8.82;2.58;;;;;;;22.86;63.19;100311.28;5110739;28;20191;-74
2022/05/21 06:48:29;;;;;;;5.60;3.20;;;;;;;23.18;64.87;100307.63;5113937;28;20193;-73
2022/05/21 06:50:56;;;;;;;5.85;3.78;;;;;;;22.77;65.62;100234.91;5113507;28;20205;-71
2022/05/21 06:53:23;;;;;;;10.15;5.85;;;;;;;23.31;66.86;100289.53;5114236;28;20266;-73
2022/05/21 06:55:49;;;;;;;5.28;3.25;;;;;;;23.16;64.89;100238.88;5114659;28;20200;-72
2022/05/21 06:58:16;;;;;;;4.20;2.60;;;;;;;23.42;65.23;100282.13;5114911;28;20201;-74
2022/05/21 07:00:44;;;;;;;4.00;2.45;;;;;;;23.52;63.69;100278.25;5113353;28;20201;-74
2022/05/21 07:03:11;;;;;;;8.55;2.60;;;;;;;23.63;63.86;100265.50;5078081;28;20258;-74
2022/05/21 07:08:25;;;;;;;4.45;2.78;;;;;;;23.71;62.54;100250.22;5094284;28;20240;-73
2022/05/21 07:10:52;;;;;;;4.95;2.33;;;;;;;23.64;60.66;100240.75;5110945;28;20733;-72
2022/05/21 07:13:22;;;;;;;3.72;2.28;;;;;;;23.74;60.75;100215.66;5113122;28;20650;-72
2022/05/21 07:15:52;;;;;;;4.88;2.20;;;;;;;23.83;58.58;100241.81;5113232;28;20194;-72
2022/05/21 07:18:21;;;;;;;2.58;2.38;;;;;;;24.10;59.06;100246.09;5113665;28;20233;-72
2022/05/21 07:20:48;;;;;;;4.00;2.17;;;;;;;24.18;58.08;100204.31;5114038;28;20277;-72
2022/05/21 07:23:15;;;;;;;2.50;2.30;;;;;;;24.44;56.14;100235.06;5077501;28;20657;-72
2022/05/21 07:25:42;;;;;;;3.13;2.33;;;;;;;24.68;54.99;100228.78;5113893;28;20193;-72
2022/05/21 07:28:10;;;;;;;2.33;2.15;;;;;;;24.71;54.17;100211.03;5106824;28;20210;-73
2022/05/21 07:30:38;;;;;;;6.43;2.10;;;;;;;24.93;53.35;100234.03;5093099;28;20682;-74
2022/05/21 07:33:10;;;;;;;4.75;1.88;;;;;;;24.96;52.26;100239.19;5092613;28;20195;-72
2022/05/21 07:35:37;;;;;;;4.38;2.28;;;;;;;25.03;52.81;100243.31;5092924;28;20681;-71
2022/05/21 07:38:05;;;;;;;25.30;3.00;;;;;;;25.13;53.55;100235.81;5092848;28;20324;-70
2022/05/21 07:40:31;;;;;;;10.75;2.40;;;;;;;25.14;52.32;100238.44;5092972;28;20202;-70
2022/05/21 07:42:58;;;;;;;10.60;2.80;;;;;;;25.01;53.96;100226.59;5092179;28;20229;-72
2022/05/21 07:45:25;;;;;;;4.20;2.38;;;;;;;24.99;52.58;100233.75;5092223;28;20849;-71
2022/05/21 07:47:52;;;;;;;5.00;2.78;;;;;;;25.20;53.15;100241.75;5092661;28;20206;-71
2022/05/21 07:50:22;;;;;;;2.55;2.33;;;;;;;25.37;52.28;100232.13;5092748;28;20194;-72
2022/05/21 07:52:49;;;;;;;3.47;2.10;;;;;;;25.34;50.22;100234.03;5074105;28;20198;-73
2022/05/21 07:55:16;;;;;;;3.30;2.00;;;;;;;25.36;51.34;100229.56;5092993;28;20206;-72
2022/05/21 07:57:43;;;;;;;4.53;2.13;;;;;;;25.32;50.72;100230.59;5093090;28;20220;-73
2022/05/21 08:00:17;;;;;;;9.70;2.00;;;;;;;25.40;50.75;100231.16;5092771;28;20225;-73
2022/05/21 08:02:45;;;;;;;3.05;1.80;;;;;;;25.64;49.44;100230.09;5059559;28;20222;-72
2022/05/21 08:05:12;;;;;;;4.78;2.70;;;;;;;25.50;48.13;100213.88;5109644;28;20193;-73
2022/05/21 08:07:40;;;;;;;4.18;1.95;;;;;;;25.15;48.91;100233.97;5103861;28;20281;-72
2022/05/21 08:10:08;;;;;;;2.78;2.20;;;;;;;24.93;51.14;100188.91;5095412;28;20726;-72
2022/05/21 08:12:35;;;;;;;3.72;1.80;;;;;;;24.88;50.79;100222.72;5094956;28;20209;-72
2022/05/21 08:15:02;;;;;;;4.63;1.90;;;;;;;25.01;50.69;100221.28;5097894;28;20198;-73
2022/05/21 08:17:28;;;;;;;12.18;2.53;;;;;;;25.26;51.86;100207.81;5113013;28;20216;-72
2022/05/21 08:19:55;;;;;;;7.03;2.65;;;;;;;25.35;53.22;100211.88;5112991;28;20704;-72
2022/05/21 08:27:53;;;;;;;3.20;2.50;;;;;;;25.35;50.41;100186.22;5105798;28;20205;-73
2022/05/21 08:30:20;;;;;;;3.08;2.38;;;;;;;25.57;50.96;100221.56;5092260;28;20199;-71
2022/05/21 08:32:47;;;;;;;2.85;1.98;;;;;;;25.63;48.61;100210.66;5109713;28;20704;-72
2022/05/21 08:35:13;;;;;;;3.05;1.88;;;;;;;25.30;48.93;100139.53;5112346;28;20201;-73
2022/05/21 08:37:40;;;;;;;23.15;4.60;;;;;;;25.89;49.23;100217.44;5111533;27;20237;-73
2022/05/21 08:40:13;;;;;;;5.13;2.88;;;;;;;25.94;48.36;100210.09;5109749;28;20201;-73
2022/05/21 08:42:47;;;;;;;3.95;2.35;;;;;;;26.13;46.40;100223.41;5099194;28;20272;-72
2022/05/21 08:45:20;;;;;;;6.38;1.83;;;;;;;26.01;44.67;100222.19;5103984;28;20198;-72
2022/05/21 08:47:59;;;;;;;2.63;2.45;;;;;;;25.75;44.78;100197.75;5095894;27;20194;-71
2022/05/21 08:50:28;;;;;;;7.07;3.42;;;;;;;25.83;45.04;100217.69;5110693;28;20209;-71
2022/05/21 08:53:02;;;;;;;8.63;3.10;;;;;;;25.87;45.63;100213.09;5088685;28;20827;-71
2022/05/21 08:55:34;;;;;;;4.97;2.97;;;;;;;26.03;44.80;100217.66;5091295;28;20206;-72
2022/05/21 08:58:04;;;;;;;5.97;2.55;;;;;;;26.03;44.29;100215.00;5091867;28;20209;-71
2022/05/21 09:00:35;;;;;;;2.45;2.25;;;;;;;26.07;44.32;100211.28;5075816;28;20193;-71
2022/05/21 09:03:06;;;;;;;10.68;2.75;;;;;;;25.97;43.96;100217.94;5106952;28;20983;-72
2022/05/21 09:05:33;;;;;;;4.60;2.30;;;;;;;26.02;44.48;100215.94;5100147;28;20696;-73
2022/05/21 09:08:08;;;;;;;7.85;2.60;;;;;;;26.05;44.40;100199.84;5095592;27;20217;-72
2022/05/21 09:10:50;;;;;;;4.80;2.15;;;;;;;26.24;45.04;100191.03;5073885;28;20216;-73
2022/05/21 09:13:20;;;;;;;2.75;1.77;;;;;;;26.39;44.23;100208.94;5110657;28;20209;-73
2022/05/21 09:18:34;;;;;;;3.67;1.80;;;;;;;26.60;42.66;100195.47;5110562;28;20322;-73
2022/05/21 09:21:05;;;;;;;2.17;1.90;;;;;;;26.66;41.70;100194.28;5109824;28;20212;-74
2022/05/21 09:23:50;;;;;;;5.32;1.73;;;;;;;26.79;42.33;100174.09;5109630;28;20304;-71
2022/05/21 09:26:20;;;;;;;4.15;1.63;;;;;;;26.93;40.03;100190.28;5089874;28;20206;-69
2022/05/21 09:28:48;;;;;;;2.83;1.60;;;;;;;26.96;39.62;100181.28;5110184;28;20202;-73
2022/05/21 09:31:24;;;;;;;5.95;2.25;;;;;;;27.08;37.88;100175.31;5111600;28;20229;-73
2022/05/21 09:33:50;;;;;;;1.55;1.40;;;;;;;27.17;36.09;100190.84;5110987;28;20201;-72
2022/05/21 09:36:22;;;;;;;3.22;1.52;;;;;;;27.19;35.63;100190.75;5111250;28;20209;-73
2022/05/21 09:38:55;;;;;;;2.63;1.65;;;;;;;27.18;36.07;100178.41;5111203;28;20296;-72
2022/05/21 09:41:26;;;;;;;3.35;1.77;;;;;;;27.07;35.13;100157.66;5104907;28;20209;-72
2022/05/21 09:46:42;;;;;;;2.17;2.03;;;;;;;27.39;37.50;100159.50;5091255;28;20719;-72
2022/05/21 09:49:30;;;;;;;2.05;1.60;;;;;;;27.54;37.96;100174.69;5089602;28;20213;-73
2022/05/21 09:51:59;;;;;;;7.53;1.30;;;;;;;27.58;37.51;100175.38;5035791;28;20675;-72
2022/05/21 09:54:29;;;;;;;1.67;1.55;;;;;;;27.61;37.94;100163.72;5046128;28;20203;-73
2022/05/21 09:56:59;;;;;;;2.00;1.50;;;;;;;27.63;39.37;100165.34;5046270;28;20747;-72
2022/05/21 09:59:29;;;;;;;3.65;1.60;;;;;;;27.78;39.75;100169.84;5046329;28;20196;-72
2022/05/21 10:01:59;;;;;;;4.10;2.78;;;;;;;27.84;38.64;100165.97;5046839;28;20215;-74
2022/05/21 10:04:31;;;;;;;19.33;12.93;;;;;;;28.17;37.17;100168.63;5046613;28;20187;-70
2022/05/21 10:07:04;;;;;;;1.77;1.67;;;;;;;27.95;37.26;100164.47;5042372;28;20718;-72
2022/05/21 10:12:28;;;;;;;7.68;1.65;;;;;;;27.48;38.84;100126.19;5047396;28;20214;-73
2022/05/21 10:15:04;;;;;;;3.03;1.58;;;;;;;27.38;38.76;100146.25;5048452;28;20206;-73
2022/05/21 10:17:34;;;;;;;1.70;1.35;;;;;;;27.11;39.63;100130.78;5046279;28;20206;-73
2022/05/21 10:20:13;;;;;;;1.92;1.67;;;;;;;27.52;40.38;100149.06;5047006;28;20723;-73
2022/05/21 10:22:49;;;;;;;3.22;1.80;;;;;;;27.72;39.11;100135.53;5049146;28;20410;-73
2022/05/21 10:25:18;;;;;;;1.90;1.80;;;;;;;27.89;38.47;100127.50;5002716;28;20234;-73
2022/05/21 10:28:13;;;;;;;3.47;2.45;;;;;;;27.97;37.81;100125.22;5052772;28;20274;-72
2022/05/21 10:31:14;;;;;;;6.13;2.40;;;;;;;27.97;36.84;100095.91;5114679;28;20197;-72
2022/05/21 10:34:03;;;;;;;4.65;1.70;;;;;;;27.83;35.60;100046.97;5114402;28;20204;-73
2022/05/21 10:36:42;;;;;;;3.15;1.75;;;;;;;28.32;35.89;100120.63;5095394;28;20205;-73
2022/05/21 10:39:28;;;;;;;10.85;1.83;;;;;;;28.29;36.58;100107.44;5114443;28;20209;-70
2022/05/21 10:42:10;;;;;;;2.88;1.50;;;;;;;28.31;35.12;100112.69;5115007;28;20220;-70
2022/05/21 10:44:51;;;;;;;6.07;1.40;;;;;;;28.30;35.55;100102.97;5114323;28;20836;-69
2022/05/21 10:47:29;;;;;;;1.90;1.50;;;;;;;28.13;35.20;100087.09;5114316;28;20573;-72
2022/05/21 10:50:11;;;;;;;3.85;1.85;;;;;;;28.09;34.45;100086.41;5094447;28;20270;-73
2022/05/21 10:52:54;;;;;;;1.58;1.45;;;;;;;28.33;35.66;100100.13;5093825;28;20225;-75
2022/05/21 10:55:27;;;;;;;1.50;1.40;;;;;;;28.17;33.48;100083.28;5071114;28;20196;-71
2022/05/21 10:58:22;;;;;;;2.35;1.90;;;;;;;28.40;34.04;100075.66;5113753;28;20288;-72
2022/05/21 11:00:59;;;;;;;2.80;1.90;;;;;;;28.39;34.01;100047.31;5031601;28;20265;-73
2022/05/21 11:03:47;;;;;;;2.60;1.80;;;;;;;28.63;33.38;100070.81;5030180;28;20219;-73
2022/05/21 11:06:41;;;;;;;2.17;1.60;;;;;;;28.81;32.94;100065.25;5030862;28;20212;-73
2022/05/21 11:09:15;;;;;;;3.33;1.50;;;;;;;28.78;32.20;100043.22;5031678;28;20242;-72
2022/05/21 11:11:53;;;;;;;4.90;1.55;;;;;;;29.11;31.89;100059.84;5030950;28;20211;-72
2022/05/21 11:14:26;;;;;;;2.47;1.40;;;;;;;28.98;30.91;100057.09;5031077;28;20202;-73
2022/05/21 11:17:03;;;;;;;3.17;1.50;;;;;;;29.27;31.89;100052.66;5011735;28;20200;-72
2022/05/21 11:19:38;;;;;;;2.47;2.08;;;;;;;29.28;31.67;99998.28;5011498;28;20205;-72
2022/05/21 11:22:08;;;;;;;1.95;1.50;;;;;;;29.48;30.86;100021.03;5016280;28;20268;-72
2022/05/21 11:24:45;;;;;;;2.13;1.40;;;;;;;29.68;30.74;100028.63;5030670;28;20270;-71
2022/05/21 11:27:18;;;;;;;1.33;1.33;;;;;;;29.77;29.60;100027.19;5030823;28;20204;-71
2022/05/21 11:29:50;;;;;;;5.72;1.95;;;;;;;29.57;30.24;100000.91;5030914;28;20273;-72
2022/05/21 11:37:59;;;;;;;1.60;1.50;;;;;;;29.74;32.19;99998.84;5075906;28;20715;-71
2022/05/21 11:41:24;;;;;;;6.47;1.83;;;;;;;29.98;31.04;100012.44;5113744;28;20201;-72
2022/05/21 11:44:55;;;;;;;4.35;2.80;;;;;;;30.10;31.28;100013.44;5112320;28;20212;-74
2022/05/21 11:46:51;;;;;;;3.08;1.80;;;;;;;30.26;29.31;100008.78;5084793;28;20304;-73
2022/05/21 11:49:44;;;;;;;1.40;1.40;;;;;;;30.38;28.94;100014.19;5096170;28;20201;-72
2022/05/21 11:52:55;;;;;;;5.20;1.85;;;;;;;30.40;29.35;100011.38;5064522;28;20205;-74
2022/05/21 11:55:26;;;;;;;2.50;1.52;;;;;;;29.95;28.18;99975.22;4977881;28;20191;-74
2022/05/21 11:57:55;;;;;;;5.97;1.40;;;;;;;30.17;28.02;99998.72;5010723;28;20751;-74
2022/05/21 12:00:54;;;;;;;2.88;1.20;;;;;;;30.24;29.41;99984.81;5010990;28;20259;-74
2022/05/21 12:03:25;;;;;;;4.03;1.35;;;;;;;30.37;29.18;99998.22;5009685;28;20228;-76
2022/05/21 12:09:07;;;;;;;1.65;1.55;;;;;;;30.39;28.18;100001.66;5094267;27;20537;-73
2022/05/21 12:11:41;;;;;;;1.27;1.25;;;;;;;30.46;29.68;99981.59;5108283;28;20208;-74